Terminal Aerodrome Forecast
Issued by NWS Louisville, KY

Home | Current Version | Previous Version | Text Only | Print | Product List | Glossary On
Versions: 1 2 3 4 5 6 7 8 9 10 11 12 13
831
FTUS43 KLMK 041125
TAFLEX
TAF
KLEX 041125Z 0412/0512 32007KT P6SM SCT025 BKN035
      TEMPO 0412/0415 BKN025 OVC035
     FM041700 29007KT P6SM BKN035
     FM050100 31004KT P6SM SKC=

USA.gov is the U.S. government's official web portal to all federal, state and local government web resources and services.